Time;durP1;ratioP1;P1;durP2;ratioP2;P2;SDS_P1;SDS_P2;PMS_P1;PMS_P2;Temp;Humidity;BMP_temperature;BMP_pressure;BME280_temperature;BME280_humidity;BME280_pressure;Samples;Min_cycle;Max_cycle;Signal;HPM_P1;HPM_P2
2023/03/30 00:00:22;;;;;;;;;;;26.00;49.80;;;;;;5085839;28;20388;-62
2023/03/30 00:02:49;;;;;;;;;;;25.90;46.40;;;;;;5085249;28;19950;-61
2023/03/30 00:05:16;;;;;;;;;;;25.80;46.20;;;;;;5079657;28;20459;-63
2023/03/30 00:07:43;;;;;;;;;;;25.50;46.80;;;;;;5082644;28;19945;-61
2023/03/30 00:10:10;;;;;;;;;;;25.20;48.00;;;;;;5082201;28;20028;-62
2023/03/30 00:12:36;;;;;;;;;;;25.20;48.30;;;;;;5080363;28;20067;-61
2023/03/30 00:15:04;;;;;;;;;;;24.80;49.50;;;;;;5066919;28;19972;-55
2023/03/30 00:17:32;;;;;;;;;;;24.50;50.20;;;;;;5087623;28;20043;-60
2023/03/30 00:20:00;;;;;;;;;;;24.40;49.70;;;;;;5085860;28;19943;-65
2023/03/30 00:22:27;;;;;;;;;;;24.50;49.40;;;;;;5082261;28;19964;-57
2023/03/30 00:24:53;;;;;;;;;;;24.40;49.50;;;;;;5080938;28;19945;-68
2023/03/30 00:27:19;;;;;;;;;;;24.40;49.90;;;;;;5089271;28;19942;-65
2023/03/30 00:29:45;;;;;;;;;;;24.40;49.80;;;;;;5087314;28;19962;-67
2023/03/30 00:32:12;;;;;;;;;;;24.40;49.70;;;;;;5087509;28;19943;-64
2023/03/30 00:34:38;;;;;;;;;;;24.00;50.20;;;;;;5077344;28;19968;-65
2023/03/30 00:37:04;;;;;;;;;;;23.90;50.90;;;;;;5082327;28;20329;-64
2023/03/30 00:39:30;;;;;;;;;;;23.60;51.20;;;;;;5086809;28;20060;-65
2023/03/30 00:41:56;;;;;;;;;;;23.40;51.80;;;;;;5085538;28;19991;-66
2023/03/30 00:44:40;;;;;;;;;;;23.30;52.30;;;;;;5085661;28;19994;-60
2023/03/30 00:47:07;;;;;;;;;;;23.20;52.10;;;;;;5085909;28;19954;-63
2023/03/30 00:49:33;;;;;;;;;;;23.10;52.40;;;;;;5087072;28;20503;-64
2023/03/30 00:52:02;;;;;;;;;;;23.10;52.70;;;;;;5086405;28;20378;-65
2023/03/30 00:54:28;;;;;;;;;;;22.90;52.90;;;;;;5081700;28;19975;-53
2023/03/30 00:56:54;;;;;;;;;;;22.80;53.70;;;;;;5086340;28;19977;-57
2023/03/30 00:59:21;;;;;;;;;;;22.60;54.20;;;;;;5090939;28;19954;-62
2023/03/30 01:01:48;;;;;;;;;;;22.60;54.30;;;;;;5087062;28;19946;-58
2023/03/30 01:04:15;;;;;;;;;;;22.50;54.40;;;;;;5088688;28;20013;-59
2023/03/30 01:06:44;;;;;;;;;;;22.40;55.00;;;;;;5086011;28;20011;-61
2023/03/30 01:09:14;;;;;;;;;;;22.00;55.60;;;;;;5090090;28;20003;-54
2023/03/30 01:11:41;;;;;;;;;;;21.80;56.00;;;;;;5084324;28;20374;-60
2023/03/30 01:14:09;;;;;;;;;;;21.70;56.50;;;;;;5087770;28;19960;-59
2023/03/30 01:16:41;;;;;;;;;;;21.60;56.50;;;;;;5085242;28;20426;-57
2023/03/30 01:19:22;;;;;;;;;;;21.50;56.70;;;;;;5083115;28;19953;-62
2023/03/30 01:21:54;;;;;;;;;;;21.40;57.00;;;;;;5086771;28;19957;-63
2023/03/30 01:24:47;;;;;;;;;;;21.20;57.30;;;;;;5085035;28;20369;-59
2023/03/30 01:27:22;;;;;;;;;;;21.00;57.50;;;;;;5066776;28;20003;-61
2023/03/30 01:29:48;;;;;;;;;;;20.90;57.80;;;;;;5082410;28;19972;-61
2023/03/30 01:32:23;;;;;;;;;;;20.80;57.60;;;;;;5081590;28;19966;-62
2023/03/30 01:34:56;;;;;;;;;;;20.70;57.40;;;;;;5084387;28;20038;-61
2023/03/30 01:37:37;;;;;;;;;;;20.50;57.70;;;;;;5090660;28;20017;-58
2023/03/30 01:40:11;;;;;;;;;;;20.50;57.80;;;;;;5090158;28;20122;-57
2023/03/30 01:42:56;;;;;;;;;;;20.30;57.70;;;;;;5091261;28;20411;-57
2023/03/30 01:45:41;;;;;;;;;;;20.00;58.00;;;;;;5084539;28;20073;-54
2023/03/30 01:48:12;;;;;;;;;;;19.90;58.20;;;;;;5082192;28;20040;-59
2023/03/30 01:51:07;;;;;;;;;;;19.90;58.30;;;;;;5080907;28;19960;-58
2023/03/30 01:53:45;;;;;;;;;;;19.80;58.30;;;;;;5011548;28;19977;-59
2023/03/30 01:56:14;;;;;;;;;;;19.80;58.10;;;;;;5010083;28;19976;-55
2023/03/30 01:58:46;;;;;;;;;;;19.70;58.30;;;;;;5010068;28;19959;-63
2023/03/30 02:01:16;;;;;;;;;;;19.60;58.20;;;;;;5007527;28;20043;-59
2023/03/30 02:03:45;;;;;;;;;;;19.40;58.30;;;;;;4992365;28;19961;-58
2023/03/30 02:06:15;;;;;;;;;;;19.30;60.10;;;;;;5013115;28;19991;-61
2023/03/30 02:08:41;;;;;;;;;;;19.30;59.90;;;;;;5011114;28;19953;-56
2023/03/30 02:11:08;;;;;;;;;;;19.30;61.50;;;;;;5012098;28;19959;-57
2023/03/30 02:13:35;;;;;;;;;;;19.10;58.40;;;;;;5010688;28;19959;-57
2023/03/30 02:16:21;;;;;;;;;;;19.20;58.60;;;;;;5009994;28;19979;-60
2023/03/30 02:18:47;;;;;;;;;;;19.10;58.50;;;;;;5009166;28;20749;-59
2023/03/30 02:21:14;;;;;;;;;;;18.90;58.50;;;;;;5015942;28;20178;-57
2023/03/30 02:23:44;;;;;;;;;;;18.90;58.70;;;;;;5009731;28;20380;-59
2023/03/30 02:26:10;;;;;;;;;;;18.90;58.60;;;;;;5009360;28;20325;-62
2023/03/30 02:28:36;;;;;;;;;;;18.90;58.70;;;;;;5009219;28;20075;-60
2023/03/30 02:31:03;;;;;;;;;;;18.80;58.90;;;;;;5078815;28;20012;-57
2023/03/30 02:33:41;;;;;;;;;;;18.90;58.70;;;;;;5083979;28;19967;-57
2023/03/30 02:36:13;;;;;;;;;;;18.70;58.60;;;;;;5089405;28;19974;-59
2023/03/30 02:39:00;;;;;;;;;;;18.80;58.70;;;;;;5088989;28;20074;-59
2023/03/30 02:41:30;;;;;;;;;;;18.60;58.60;;;;;;5089759;28;19966;-61
2023/03/30 02:44:14;;;;;;;;;;;18.50;58.70;;;;;;5087327;28;19957;-60
2023/03/30 02:46:59;;;;;;;;;;;18.40;58.80;;;;;;5088667;28;19970;-57
2023/03/30 02:49:34;;;;;;;;;;;18.40;58.90;;;;;;5089342;28;19968;-58
2023/03/30 02:52:09;;;;;;;;;;;18.30;58.90;;;;;;5089988;28;19971;-59
2023/03/30 02:54:48;;;;;;;;;;;18.30;59.10;;;;;;5089418;28;19978;-59
2023/03/30 02:57:21;;;;;;;;;;;18.20;58.90;;;;;;5082065;28;20013;-57
2023/03/30 02:59:56;;;;;;;;;;;18.20;59.10;;;;;;5083962;28;19990;-59
2023/03/30 03:02:26;;;;;;;;;;;18.10;59.10;;;;;;5084028;28;19959;-58
2023/03/30 03:04:53;;;;;;;;;;;18.10;59.40;;;;;;5087232;28;20003;-59
2023/03/30 03:07:20;;;;;;;;;;;18.30;68.70;;;;;;5088383;28;19959;-66
2023/03/30 03:09:46;;;;;;;;;;;18.10;61.00;;;;;;5068830;28;19963;-62
2023/03/30 03:12:12;;;;;;;;;;;18.20;66.10;;;;;;5067425;28;19960;-61
2023/03/30 03:14:38;;;;;;;;;;;18.10;65.30;;;;;;5087227;28;20039;-63
2023/03/30 03:17:04;;;;;;;;;;;18.10;67.40;;;;;;5088698;28;20408;-62
2023/03/30 03:19:31;;;;;;;;;;;18.00;59.90;;;;;;5082920;28;20440;-61
2023/03/30 03:21:57;;;;;;;;;;;18.00;60.00;;;;;;5072833;28;20042;-61
2023/03/30 03:24:23;;;;;;;;;;;17.90;60.50;;;;;;5086490;28;20002;-59
2023/03/30 03:26:49;;;;;;;;;;;17.90;59.90;;;;;;5089796;28;19983;-59
2023/03/30 03:29:15;;;;;;;;;;;17.90;64.50;;;;;;5088904;28;20039;-62
2023/03/30 03:31:41;;;;;;;;;;;18.00;68.00;;;;;;5088640;28;20024;-61
2023/03/30 03:34:08;;;;;;;;;;;17.90;67.60;;;;;;5075370;28;20775;-61
2023/03/30 03:36:34;;;;;;;;;;;18.00;71.30;;;;;;5084738;28;19930;-62
2023/03/30 03:39:00;;;;;;;;;;;17.80;63.60;;;;;;5088233;28;19969;-62
2023/03/30 03:41:26;;;;;;;;;;;17.80;63.20;;;;;;5085482;28;20009;-62
2023/03/30 03:43:52;;;;;;;;;;;17.70;61.80;;;;;;5085958;28;19956;-62
2023/03/30 03:46:19;;;;;;;;;;;17.90;62.80;;;;;;5089385;28;20004;-60
2023/03/30 03:48:45;;;;;;;;;;;17.60;63.80;;;;;;5085369;28;19943;-62
2023/03/30 03:51:11;;;;;;;;;;;17.80;64.50;;;;;;5062408;28;20062;-66
2023/03/30 03:53:37;;;;;;;;;;;17.30;69.90;;;;;;5084863;28;19958;-62
2023/03/30 03:56:04;;;;;;;;;;;17.80;72.30;;;;;;5081837;28;20007;-66
2023/03/30 03:58:30;;;;;;;;;;;17.60;71.80;;;;;;5088714;28;19936;-62
2023/03/30 04:01:00;;;;;;;;;;;17.40;70.80;;;;;;5089666;28;19940;-62
2023/03/30 04:03:26;;;;;;;;;;;17.00;69.80;;;;;;5085223;28;20025;-66
2023/03/30 04:05:53;;;;;;;;;;;17.40;69.60;;;;;;5086137;28;20412;-62
2023/03/30 04:08:19;;;;;;;;;;;17.30;73.00;;;;;;5088494;28;19927;-63
2023/03/30 04:10:45;;;;;;;;;;;17.20;71.30;;;;;;5086618;28;19955;-61
2023/03/30 04:13:11;;;;;;;;;;;17.10;73.10;;;;;;5071174;28;19932;-61
2023/03/30 04:15:37;;;;;;;;;;;16.90;78.20;;;;;;5081632;28;20421;-61
2023/03/30 04:18:04;;;;;;;;;;;17.20;80.60;;;;;;5081615;28;20023;-59
2023/03/30 04:20:30;;;;;;;;;;;17.00;72.40;;;;;;5084466;28;19995;-62
2023/03/30 04:22:56;;;;;;;;;;;16.70;63.60;;;;;;5086901;28;20040;-60
2023/03/30 04:25:24;;;;;;;;;;;17.10;67.80;;;;;;5085352;28;19980;-61
2023/03/30 04:27:51;;;;;;;;;;;16.70;70.80;;;;;;5082367;28;19934;-60
2023/03/30 04:30:17;;;;;;;;;;;16.60;73.50;;;;;;5072725;28;19961;-58
2023/03/30 04:32:45;;;;;;;;;;;16.60;60.90;;;;;;5091522;28;19935;-58
2023/03/30 04:35:13;;;;;;;;;;;16.40;62.20;;;;;;5089309;28;19973;-61
2023/03/30 04:37:41;;;;;;;;;;;16.20;68.10;;;;;;5091641;28;19942;-60
2023/03/30 04:40:08;;;;;;;;;;;16.50;67.00;;;;;;5091551;28;19956;-63
2023/03/30 04:42:36;;;;;;;;;;;16.40;62.70;;;;;;5092018;28;19963;-63
2023/03/30 04:45:03;;;;;;;;;;;16.20;63.80;;;;;;5086624;28;19960;-64
2023/03/30 04:47:29;;;;;;;;;;;16.90;59.80;;;;;;5094601;28;19981;-66
2023/03/30 04:49:55;;;;;;;;;;;16.30;59.40;;;;;;5085479;28;20030;-66
2023/03/30 04:52:21;;;;;;;;;;;16.60;65.10;;;;;;5092150;28;19937;-60
2023/03/30 04:54:47;;;;;;;;;;;16.40;67.50;;;;;;5088670;28;20394;-63
2023/03/30 04:57:14;;;;;;;;;;;16.20;65.40;;;;;;5091566;28;19992;-59
2023/03/30 04:59:40;;;;;;;;;;;16.00;66.50;;;;;;5090094;28;19964;-65
2023/03/30 05:02:06;;;;;;;;;;;16.00;61.90;;;;;;5086836;28;19966;-63
2023/03/30 05:04:32;;;;;;;;;;;16.00;60.80;;;;;;5083101;28;19965;-59
2023/03/30 05:06:58;;;;;;;;;;;15.90;60.60;;;;;;5088078;28;19962;-61
2023/03/30 05:09:24;;;;;;;;;;;15.90;58.40;;;;;;5085055;28;20011;-62
2023/03/30 05:11:50;;;;;;;;;;;15.90;60.60;;;;;;5089985;28;20627;-61
2023/03/30 05:14:16;;;;;;;;;;;16.00;58.50;;;;;;5090241;28;19965;-61
2023/03/30 05:16:42;;;;;;;;;;;15.90;58.50;;;;;;5086291;28;20016;-61
2023/03/30 05:19:08;;;;;;;;;;;15.90;58.10;;;;;;5088224;28;20012;-61
2023/03/30 05:21:35;;;;;;;;;;;16.00;57.60;;;;;;5090750;28;19995;-62
2023/03/30 05:24:02;;;;;;;;;;;16.40;61.80;;;;;;5088165;28;19996;-61
2023/03/30 05:26:28;;;;;;;;;;;16.10;61.20;;;;;;5089146;28;19946;-60
2023/03/30 05:28:54;;;;;;;;;;;15.70;59.50;;;;;;5088642;28;19969;-62
2023/03/30 05:31:20;;;;;;;;;;;15.90;59.30;;;;;;5085379;28;19952;-63
2023/03/30 05:33:46;;;;;;;;;;;15.70;57.90;;;;;;5085328;28;19949;-61
2023/03/30 05:36:13;;;;;;;;;;;15.50;58.40;;;;;;5069255;28;20477;-58
2023/03/30 05:38:39;;;;;;;;;;;15.60;57.10;;;;;;5092134;28;19974;-60
2023/03/30 05:41:05;;;;;;;;;;;15.40;56.80;;;;;;5089817;28;20110;-60
2023/03/30 05:43:32;;;;;;;;;;;15.30;56.30;;;;;;5090305;28;19960;-61
2023/03/30 05:45:58;;;;;;;;;;;15.20;55.40;;;;;;5089469;28;20828;-57
2023/03/30 05:48:24;;;;;;;;;;;15.10;55.50;;;;;;5091424;28;19965;-58
2023/03/30 05:50:50;;;;;;;;;;;15.10;55.20;;;;;;5090920;28;19966;-61
2023/03/30 05:53:16;;;;;;;;;;;14.90;54.90;;;;;;5090797;28;19959;-58
2023/03/30 05:55:44;;;;;;;;;;;14.90;55.00;;;;;;5089224;28;19981;-61
2023/03/30 05:58:10;;;;;;;;;;;14.90;54.70;;;;;;5087495;28;20506;-60
2023/03/30 06:00:37;;;;;;;;;;;14.90;54.50;;;;;;5091632;28;20442;-61
2023/03/30 06:03:03;;;;;;;;;;;14.80;54.40;;;;;;5086793;28;20013;-61
2023/03/30 06:05:32;;;;;;;;;;;14.70;54.20;;;;;;5082569;28;19994;-64
2023/03/30 06:07:59;;;;;;;;;;;14.80;54.00;;;;;;5085528;28;20013;-59
2023/03/30 06:10:26;;;;;;;;;;;14.80;53.70;;;;;;5082758;28;20413;-61
2023/03/30 06:12:52;;;;;;;;;;;14.70;53.50;;;;;;5082723;28;20318;-64
2023/03/30 06:15:18;;;;;;;;;;;14.70;53.50;;;;;;5084267;28;19976;-62
2023/03/30 06:17:45;;;;;;;;;;;13.30;52.80;;;;;;5088789;28;20054;-60
2023/03/30 06:20:11;;;;;;;;;;;14.60;53.10;;;;;;5090633;28;20058;-61
2023/03/30 06:22:40;;;;;;;;;;;14.60;52.70;;;;;;5091330;28;19975;-59
2023/03/30 06:25:07;;;;;;;;;;;14.50;52.20;;;;;;5084709;28;20021;-62
2023/03/30 06:27:34;;;;;;;;;;;14.60;52.10;;;;;;5089406;28;19968;-60
2023/03/30 06:30:00;;;;;;;;;;;14.50;52.30;;;;;;5089774;28;20038;-62
2023/03/30 06:32:26;;;;;;;;;;;14.50;51.70;;;;;;5090391;28;20013;-59
2023/03/30 06:34:53;;;;;;;;;;;14.50;51.90;;;;;;5090139;28;20019;-58
2023/03/30 06:37:19;;;;;;;;;;;14.60;61.90;;;;;;5086530;28;19955;-62
2023/03/30 06:39:45;;;;;;;;;;;14.40;51.10;;;;;;5089037;28;20224;-60
2023/03/30 06:42:11;;;;;;;;;;;14.50;51.40;;;;;;5089159;28;20351;-55
2023/03/30 06:44:38;;;;;;;;;;;14.50;51.40;;;;;;5087110;28;20106;-64
2023/03/30 06:47:05;;;;;;;;;;;14.50;51.30;;;;;;5089335;28;19986;-61
2023/03/30 06:49:31;;;;;;;;;;;14.50;51.30;;;;;;5087628;28;19967;-62
2023/03/30 06:51:57;;;;;;;;;;;14.40;51.70;;;;;;5085527;28;19964;-62
2023/03/30 06:54:23;;;;;;;;;;;14.40;51.80;;;;;;5089121;28;20407;-61
2023/03/30 06:56:49;;;;;;;;;;;14.40;51.70;;;;;;5088624;28;20054;-62
2023/03/30 06:59:16;;;;;;;;;;;14.40;51.60;;;;;;5082142;28;20101;-63
2023/03/30 07:01:42;;;;;;;;;;;14.30;52.20;;;;;;5084345;28;19963;-62
2023/03/30 07:04:08;;;;;;;;;;;14.30;52.10;;;;;;5087079;28;20532;-62
2023/03/30 07:06:34;;;;;;;;;;;14.30;52.60;;;;;;5080209;28;20010;-61
2023/03/30 07:09:01;;;;;;;;;;;14.30;53.10;;;;;;5082801;28;19967;-62
2023/03/30 07:11:27;;;;;;;;;;;14.30;54.20;;;;;;5088568;28;20487;-61
2023/03/30 07:13:57;;;;;;;;;;;14.20;55.20;;;;;;5088361;28;20423;-62
2023/03/30 07:16:23;;;;;;;;;;;14.10;56.00;;;;;;5074189;28;20382;-62
2023/03/30 07:18:50;;;;;;;;;;;14.10;56.30;;;;;;5086579;28;19961;-63
2023/03/30 07:21:17;;;;;;;;;;;14.30;56.80;;;;;;5079835;28;20016;-62
2023/03/30 07:23:43;;;;;;;;;;;14.00;56.60;;;;;;5077140;28;20013;-60
2023/03/30 07:26:10;;;;;;;;;;;14.00;57.20;;;;;;5080305;28;19978;-61
2023/03/30 07:28:37;;;;;;;;;;;14.00;57.40;;;;;;5076350;28;20050;-62
2023/03/30 07:31:09;;;;;;;;;;;14.10;55.60;;;;;;5077195;28;20338;-63
2023/03/30 07:33:36;;;;;;;;;;;14.10;54.50;;;;;;5077182;28;19975;-60
2023/03/30 07:36:02;;;;;;;;;;;14.10;57.70;;;;;;5077878;28;20395;-60
2023/03/30 07:38:28;;;;;;;;;;;14.10;58.90;;;;;;5076851;28;19980;-57
2023/03/30 07:40:54;;;;;;;;;;;14.00;59.00;;;;;;5077733;28;19960;-61
2023/03/30 07:43:20;;;;;;;;;;;14.30;57.80;;;;;;5077367;28;19959;-62
2023/03/30 07:45:46;;;;;;;;;;;14.10;57.70;;;;;;5079408;28;19967;-64
2023/03/30 07:48:12;;;;;;;;;;;14.00;57.60;;;;;;5079585;28;19963;-61
2023/03/30 07:50:38;;;;;;;;;;;14.00;58.10;;;;;;5077790;28;20103;-61
2023/03/30 07:53:07;;;;;;;;;;;14.00;58.50;;;;;;5078949;28;19985;-64
2023/03/30 07:55:33;;;;;;;;;;;13.90;59.00;;;;;;5080115;28;20006;-61
2023/03/30 07:57:59;;;;;;;;;;;13.80;58.70;;;;;;5083818;28;20354;-63
2023/03/30 08:00:25;;;;;;;;;;;13.80;59.10;;;;;;5081100;28;20068;-63
2023/03/30 08:02:51;;;;;;;;;;;13.80;58.90;;;;;;5086005;28;19974;-61
2023/03/30 08:05:17;;;;;;;;;;;13.80;59.30;;;;;;5085988;28;20002;-60
2023/03/30 08:07:44;;;;;;;;;;;13.80;59.20;;;;;;5083461;28;20073;-62
2023/03/30 08:10:10;;;;;;;;;;;13.80;59.30;;;;;;5082707;28;20403;-63
2023/03/30 08:12:36;;;;;;;;;;;13.70;60.00;;;;;;5086655;28;20427;-61
2023/03/30 08:15:03;;;;;;;;;;;13.80;59.30;;;;;;5080771;28;19987;-63
2023/03/30 08:17:29;;;;;;;;;;;13.80;59.20;;;;;;5081702;28;19960;-62
2023/03/30 08:19:55;;;;;;;;;;;13.80;59.30;;;;;;5063157;28;19983;-62
2023/03/30 08:22:22;;;;;;;;;;;13.70;59.30;;;;;;5081163;28;19961;-61
2023/03/30 08:24:48;;;;;;;;;;;13.80;58.90;;;;;;5081528;28;19960;-61
2023/03/30 08:27:14;;;;;;;;;;;13.80;58.40;;;;;;5083348;28;19965;-61
2023/03/30 08:29:40;;;;;;;;;;;13.90;58.30;;;;;;5083352;28;20376;-60
2023/03/30 08:32:06;;;;;;;;;;;14.20;58.10;;;;;;5064652;28;19965;-61
2023/03/30 08:34:33;;;;;;;;;;;13.90;58.10;;;;;;5079596;28;20034;-63
2023/03/30 08:36:59;;;;;;;;;;;13.90;58.30;;;;;;5080435;28;20029;-60
2023/03/30 08:39:27;;;;;;;;;;;13.80;58.60;;;;;;5082799;28;19979;-61
2023/03/30 08:42:07;;;;;;;;;;;13.80;59.10;;;;;;5082504;28;20014;-61
2023/03/30 08:44:35;;;;;;;;;;;13.70;59.30;;;;;;5081855;28;19982;-62
2023/03/30 08:47:03;;;;;;;;;;;13.70;59.70;;;;;;5082471;28;19960;-61
2023/03/30 08:49:32;;;;;;;;;;;13.60;59.70;;;;;;5082006;28;20007;-60
2023/03/30 08:51:58;;;;;;;;;;;13.70;59.30;;;;;;5081654;28;19988;-60
2023/03/30 08:54:25;;;;;;;;;;;13.70;58.70;;;;;;5083287;28;19961;-62
2023/03/30 08:57:10;;;;;;;;;;;13.70;58.50;;;;;;5082438;28;19956;-62
2023/03/30 08:59:39;;;;;;;;;;;13.70;58.30;;;;;;5080379;28;20006;-63
2023/03/30 09:02:23;;;;;;;;;;;13.80;58.40;;;;;;5081098;28;19968;-62
2023/03/30 09:05:13;;;;;;;;;;;13.80;58.20;;;;;;5080841;28;19991;-61
2023/03/30 09:07:55;;;;;;;;;;;13.70;58.20;;;;;;5081510;28;20011;-62
2023/03/30 09:10:21;;;;;;;;;;;13.70;58.20;;;;;;5079660;28;19983;-62
2023/03/30 09:12:50;;;;;;;;;;;13.70;58.40;;;;;;5084352;28;20343;-63
2023/03/30 09:15:18;;;;;;;;;;;13.80;58.10;;;;;;5080542;28;19975;-62
2023/03/30 09:17:47;;;;;;;;;;;13.30;58.10;;;;;;5079465;28;20027;-65
2023/03/30 09:20:24;;;;;;;;;;;13.80;58.60;;;;;;5081998;28;19959;-61
2023/03/30 09:22:51;;;;;;;;;;;13.80;58.80;;;;;;5081225;28;19971;-62
2023/03/30 09:25:24;;;;;;;;;;;13.80;58.20;;;;;;5080250;28;20556;-62
2023/03/30 09:27:54;;;;;;;;;;;13.70;58.70;;;;;;5079523;28;20648;-62
2023/03/30 09:30:23;;;;;;;;;;;13.70;59.00;;;;;;5080716;28;20062;-62
2023/03/30 09:32:57;;;;;;;;;;;14.40;59.40;;;;;;5077750;28;19996;-62
2023/03/30 09:35:25;;;;;;;;;;;13.70;59.60;;;;;;5080873;28;19975;-63
2023/03/30 09:37:51;;;;;;;;;;;13.70;59.00;;;;;;5081805;28;20029;-61
2023/03/30 09:40:17;;;;;;;;;;;13.70;58.60;;;;;;5083452;28;19977;-61
2023/03/30 09:43:03;;;;;;;;;;;13.60;58.50;;;;;;5082753;28;20039;-62
2023/03/30 09:45:30;;;;;;;;;;;13.70;58.60;;;;;;5082778;28;20398;-62
2023/03/30 09:48:02;;;;;;;;;;;13.70;58.50;;;;;;5081068;28;20431;-63
2023/03/30 09:50:28;;;;;;;;;;;13.70;58.70;;;;;;5078824;28;20050;-62
2023/03/30 09:52:57;;;;;;;;;;;13.70;58.70;;;;;;5079167;28;19976;-62
2023/03/30 09:55:31;;;;;;;;;;;13.70;58.70;;;;;;5080047;28;20408;-63
2023/03/30 09:58:11;;;;;;;;;;;13.70;58.70;;;;;;5079595;28;19959;-62
2023/03/30 10:00:38;;;;;;;;;;;13.60;58.60;;;;;;5077869;28;20029;-62
2023/03/30 10:03:05;;;;;;;;;;;13.60;58.70;;;;;;5077501;28;20373;-62
2023/03/30 10:05:32;;;;;;;;;;;13.50;58.80;;;;;;5080238;28;20039;-64
2023/03/30 10:08:06;;;;;;;;;;;13.50;59.00;;;;;;5080839;28;19984;-61
2023/03/30 10:10:32;;;;;;;;;;;13.50;59.00;;;;;;5081865;28;19968;-62
2023/03/30 10:13:18;;;;;;;;;;;13.40;59.20;;;;;;5080801;28;19961;-61
2023/03/30 10:15:47;;;;;;;;;;;13.40;59.10;;;;;;5081227;28;19982;-61
2023/03/30 10:18:13;;;;;;;;;;;13.40;59.20;;;;;;5078364;28;20420;-62
2023/03/30 10:20:40;;;;;;;;;;;13.40;59.20;;;;;;5079537;28;19976;-63
2023/03/30 10:23:13;;;;;;;;;;;13.30;59.90;;;;;;5079748;28;20079;-60
2023/03/30 10:25:40;;;;;;;;;;;13.40;59.30;;;;;;5077795;28;19973;-61
2023/03/30 10:28:14;;;;;;;;;;;13.40;59.50;;;;;;5081966;28;20018;-61
2023/03/30 10:30:40;;;;;;;;;;;13.40;59.60;;;;;;5079993;28;19998;-62
2023/03/30 10:33:08;;;;;;;;;;;13.40;59.90;;;;;;5078719;28;20437;-62
2023/03/30 10:35:36;;;;;;;;;;;13.40;60.00;;;;;;5078774;28;19977;-62
2023/03/30 10:38:03;;;;;;;;;;;13.40;60.00;;;;;;5083678;28;20058;-62
2023/03/30 10:40:35;;;;;;;;;;;13.40;60.50;;;;;;5078424;28;19977;-62
2023/03/30 10:43:01;;;;;;;;;;;13.40;60.70;;;;;;5075583;28;19975;-63
2023/03/30 10:45:33;;;;;;;;;;;13.40;61.00;;;;;;5077675;28;19959;-63
2023/03/30 10:48:19;;;;;;;;;;;13.30;60.80;;;;;;5077391;28;20019;-62
2023/03/30 10:51:00;;;;;;;;;;;13.40;60.70;;;;;;5072076;28;19969;-63
2023/03/30 10:53:32;;;;;;;;;;;13.40;60.80;;;;;;5081740;28;20026;-63
2023/03/30 10:56:03;;;;;;;;;;;13.40;61.00;;;;;;5074108;28;19976;-62
2023/03/30 10:58:53;;;;;;;;;;;13.40;61.20;;;;;;5080913;28;19960;-61
2023/03/30 11:01:19;;;;;;;;;;;13.40;61.30;;;;;;5079581;28;20034;-61
2023/03/30 11:03:47;;;;;;;;;;;13.40;61.50;;;;;;5080618;28;19968;-62
2023/03/30 11:06:21;;;;;;;;;;;13.50;61.70;;;;;;5078186;28;20034;-62
2023/03/30 11:08:50;;;;;;;;;;;13.40;62.20;;;;;;5079334;28;20448;-62
2023/03/30 11:11:19;;;;;;;;;;;13.30;62.50;;;;;;5079876;28;20017;-63
2023/03/30 11:14:06;;;;;;;;;;;13.40;63.00;;;;;;5082874;28;20714;-62
2023/03/30 11:16:39;;;;;;;;;;;13.40;63.40;;;;;;5079649;28;19977;-62
2023/03/30 11:19:19;;;;;;;;;;;13.30;64.00;;;;;;5078261;28;19983;-60
2023/03/30 11:21:51;;;;;;;;;;;13.20;64.60;;;;;;5080849;28;19991;-61
2023/03/30 11:24:19;;;;;;;;;;;13.20;65.10;;;;;;5079526;28;20038;-61
2023/03/30 11:26:48;;;;;;;;;;;13.10;65.30;;;;;;5080762;28;19961;-61
2023/03/30 11:29:14;;;;;;;;;;;13.10;65.30;;;;;;5078286;28;19968;-61
2023/03/30 11:31:46;;;;;;;;;;;13.20;64.80;;;;;;5075403;28;20038;-60
2023/03/30 11:34:20;;;;;;;;;;;13.20;64.40;;;;;;5080320;28;20404;-62
2023/03/30 11:36:52;;;;;;;;;;;13.90;64.30;;;;;;5080520;28;19982;-61
2023/03/30 11:39:22;;;;;;;;;;;13.10;62.80;;;;;;5080801;28;19977;-62
2023/03/30 11:41:53;;;;;;;;;;;13.20;62.10;;;;;;5081889;28;20419;-62
2023/03/30 11:44:19;;;;;;;;;;;13.30;62.00;;;;;;5080037;28;19998;-63
2023/03/30 11:47:15;;;;;;;;;;;13.30;61.90;;;;;;5079681;28;19992;-63
2023/03/30 11:49:51;;;;;;;;;;;13.30;61.70;;;;;;5017868;28;20504;-60
2023/03/30 11:52:26;;;;;;;;;;;13.30;61.60;;;;;;5079538;28;19967;-63
2023/03/30 11:55:07;;;;;;;;;;;13.30;61.00;;;;;;5079329;28;20006;-62
2023/03/30 11:57:43;;;;;;;;;;;13.40;61.20;;;;;;5081938;28;19968;-63
2023/03/30 12:00:27;;;;;;;;;;;13.40;61.30;;;;;;5080966;28;20327;-62
2023/03/30 12:03:12;;;;;;;;;;;13.40;61.70;;;;;;5079914;28;19969;-63
2023/03/30 12:05:41;;;;;;;;;;;13.40;61.30;;;;;;5081795;28;19988;-62
2023/03/30 12:08:22;;;;;;;;;;;13.30;60.80;;;;;;5081527;28;19984;-62
2023/03/30 12:10:52;;;;;;;;;;;13.30;60.60;;;;;;5079014;28;19961;-62
2023/03/30 12:13:19;;;;;;;;;;;13.30;60.80;;;;;;5079120;28;20014;-62
2023/03/30 12:15:48;;;;;;;;;;;13.80;64.10;;;;;;5079886;28;19983;-62
2023/03/30 12:18:14;;;;;;;;;;;13.10;65.60;;;;;;5076673;28;20385;-63
2023/03/30 12:20:40;;;;;;;;;;;13.10;66.40;;;;;;5079261;28;19964;-62
2023/03/30 12:23:09;;;;;;;;;;;12.90;66.70;;;;;;5074744;28;19984;-63
2023/03/30 12:25:54;;;;;;;;;;;12.70;67.50;;;;;;5078067;28;19961;-62
2023/03/30 12:28:23;;;;;;;;;;;12.70;67.30;;;;;;5077445;28;19977;-60
2023/03/30 12:30:52;;;;;;;;;;;12.70;67.60;;;;;;5076018;28;20030;-62
2023/03/30 12:33:19;;;;;;;;;;;12.70;67.60;;;;;;5075861;28;19960;-62
2023/03/30 12:35:45;;;;;;;;;;;12.50;67.70;;;;;;5093155;28;19979;-63
2023/03/30 12:38:15;;;;;;;;;;;12.50;68.30;;;;;;5078888;28;20014;-61
2023/03/30 12:40:45;;;;;;;;;;;12.40;68.20;;;;;;5077187;28;19991;-62
2023/03/30 12:43:29;;;;;;;;;;;12.50;68.00;;;;;;5077557;28;20720;-63
2023/03/30 12:46:04;;;;;;;;;;;12.50;68.10;;;;;;5077363;28;19981;-63
2023/03/30 12:48:35;;;;;;;;;;;12.50;68.20;;;;;;5076536;28;19967;-62
2023/03/30 12:51:37;;;;;;;;;;;12.60;68.60;;;;;;5080038;28;19960;-62
2023/03/30 12:54:17;;;;;;;;;;;12.60;68.20;;;;;;5020807;28;20083;-61
2023/03/30 12:57:12;;;;;;;;;;;12.50;68.50;;;;;;5022386;28;20104;-60
2023/03/30 12:59:57;;;;;;;;;;;12.60;68.80;;;;;;5003822;28;19978;-61
2023/03/30 13:02:38;;;;;;;;;;;12.60;68.70;;;;;;5020895;28;20006;-62
2023/03/30 13:05:15;;;;;;;;;;;12.70;68.20;;;;;;5019036;28;19996;-62
2023/03/30 13:07:42;;;;;;;;;;;12.70;67.80;;;;;;5019218;28;19976;-62
2023/03/30 13:10:26;;;;;;;;;;;12.80;67.40;;;;;;5020753;28;19974;-62
2023/03/30 13:12:54;;;;;;;;;;;12.90;67.60;;;;;;5018466;28;19960;-62
2023/03/30 13:15:38;;;;;;;;;;;12.90;67.10;;;;;;5017351;28;19991;-63
2023/03/30 13:18:25;;;;;;;;;;;13.00;67.10;;;;;;5020067;28;20023;-62
2023/03/30 13:20:54;;;;;;;;;;;13.10;66.80;;;;;;5000695;28;20432;-62
2023/03/30 13:23:20;;;;;;;;;;;13.10;66.60;;;;;;5019910;28;19978;-62
2023/03/30 13:26:01;;;;;;;;;;;13.10;66.60;;;;;;5019239;28;20010;-62
2023/03/30 13:28:33;;;;;;;;;;;13.10;66.60;;;;;;5061106;28;19961;-63
2023/03/30 13:31:04;;;;;;;;;;;13.10;66.90;;;;;;5080782;28;19967;-63
2023/03/30 13:33:30;;;;;;;;;;;13.10;66.70;;;;;;5078896;28;19960;-62
2023/03/30 13:35:56;;;;;;;;;;;13.00;67.00;;;;;;5081771;28;21358;-62
2023/03/30 13:38:22;;;;;;;;;;;13.00;67.20;;;;;;5079828;28;19967;-63
2023/03/30 13:41:09;;;;;;;;;;;13.00;67.40;;;;;;5079678;28;20046;-63
2023/03/30 13:43:39;;;;;;;;;;;13.10;67.40;;;;;;5075553;28;20424;-62
2023/03/30 13:46:05;;;;;;;;;;;13.00;67.80;;;;;;5079554;28;19982;-62
2023/03/30 13:48:38;;;;;;;;;;;13.10;68.30;;;;;;5080642;28;19964;-62
2023/03/30 13:51:04;;;;;;;;;;;13.10;68.00;;;;;;5080792;28;19969;-63
2023/03/30 13:53:36;;;;;;;;;;;13.10;68.80;;;;;;5063675;28;19960;-61
2023/03/30 13:56:05;;;;;;;;;;;13.10;68.70;;;;;;5079646;28;19987;-61
2023/03/30 13:58:32;;;;;;;;;;;13.10;68.90;;;;;;5079337;28;19977;-62
2023/03/30 14:01:01;;;;;;;;;;;12.90;69.30;;;;;;5083401;28;20024;-63
2023/03/30 14:03:46;;;;;;;;;;;12.90;70.10;;;;;;5077532;28;19968;-60
2023/03/30 14:06:16;;;;;;;;;;;12.90;70.30;;;;;;5080243;28;19988;-62
2023/03/30 14:08:46;;;;;;;;;;;12.90;70.30;;;;;;5078148;28;19967;-61
2023/03/30 14:11:15;;;;;;;;;;;12.90;70.10;;;;;;5078452;28;20058;-63
2023/03/30 14:13:41;;;;;;;;;;;13.10;69.30;;;;;;5079597;28;20618;-63
2023/03/30 14:16:08;;;;;;;;;;;13.10;68.40;;;;;;5081011;28;20475;-63
2023/03/30 14:18:35;;;;;;;;;;;13.10;67.80;;;;;;5082864;28;20405;-62
2023/03/30 14:21:08;;;;;;;;;;;13.10;67.80;;;;;;5080696;28;19969;-60
2023/03/30 14:23:35;;;;;;;;;;;13.20;67.30;;;;;;5079339;28;19983;-63
2023/03/30 14:26:03;;;;;;;;;;;13.20;67.20;;;;;;5078232;28;19974;-64
2023/03/30 14:28:32;;;;;;;;;;;13.20;67.10;;;;;;5079736;28;20787;-63
2023/03/30 14:31:03;;;;;;;;;;;13.20;66.80;;;;;;5080660;28;19967;-62